Airfield :
LOGIN :

Register | Disclaimer

   EN    FR    IT 

 










Legend :    VFR   Marginal VFR   IFR   Intensive IFR   Very Intensive IFR
Visi :
Ceiling :
>= 8 km
>= 3000ft
5 to 8 km
1000 to 3000 ft
1500m to 5 km
500 to 1000 ft
800 to 1500m
200 to 500 ft
< 800m
< 200 ft
Symbols :   Thunderstorms  Fog  Heavy snow  Heavy precipitations  Wind > 20 kt
SIGMETs :     Misc.  Thunderstorms  Icing  Turbulence  Mountain Waves  Volcanic Ashes







- Airport Elevation : 274 ft
- IATA code : PUY


LDPL - Pula

CURRENT METAR :
  • 191200Z 10012KT 080V150 9999 FEW050 29/11 Q1019 BECMG 27010KT

EXPIRED METARs :
  • 191130Z 10010KT 070V150 9999 FEW050 30/11 Q1019 BECMG 27010KT
  • 191100Z 10011KT CAVOK 29/10 Q1019 BECMG 27010KT
  • 191030Z 08012KT 050V110 CAVOK 30/11 Q1019 NOSIG
  • 191000Z 09010KT 040V120 CAVOK 29/10 Q1019 NOSIG
  • 190930Z 08011G21KT 050V140 CAVOK 29/11 Q1019 NOSIG
  • 190900Z 07012KT 040V100 CAVOK 28/10 Q1019 NOSIG

TAF TAF LDPL
Valid from the 19 at 12:00 until the 20 at 12:00 UTC


191125Z 1912/2012 08010KT CAVOK TX31/1912Z TN20/2002Z
BECMG 1912/1914 27010KT
BECMG 1917/1919 06008KT
No reported NOTAMs for that airfield.
1 SIGMET reported for the Zagreb FIR (LDZO) :
 
Severe turbulence
LDZO SIGMET 4 VALID 191000/191400 LDZA
LDZO ZAGREB FIR SEV TURB FCST WI N4454 E01456 - N4412 E01613 - N4353 E01546 - N4436 E01444 - N4454 E01456 SFC/6000FT STNR NC=



MET'MAP, your aeronautical weather chart ! - Copyright ORBIFLY December 2007 - Disclaimer

ORBIFLY MET'MAP TEAM :

Programming & Development : Alexandra Zaïnal
Concept & Development : Baudouin d'Aumeries
Co-Development & Prog : Marc-Olivier Méhu
Technical & hardware support : Manuel Goepfert

Contact : metmap@orbifly.com




SOURCES & CREDITS :

   NOAA